TimeCDT,TemperatureF,Dew PointF,Humidity,Sea Level PressureIn,VisibilityMPH,Wind Direction,Wind SpeedMPH,Gust SpeedMPH,PrecipitationIn,Events,Conditions,WindDirDegrees,DateUTC
12:53 AM,48.9,39.0,69,29.94,10.0,SSW,11.5,-,N/A,,Clear,210,2013-10-20 05:53:00
1:53 AM,48.9,37.9,66,29.93,10.0,SSW,13.8,-,N/A,,Clear,210,2013-10-20 06:53:00
2:53 AM,48.9,37.9,66,29.91,10.0,SSW,11.5,-,N/A,,Clear,210,2013-10-20 07:53:00
3:53 AM,50.0,37.9,63,29.90,10.0,SSW,15.0,-,N/A,,Clear,210,2013-10-20 08:53:00
4:53 AM,48.9,37.9,66,29.88,10.0,SSW,13.8,-,N/A,,Clear,210,2013-10-20 09:53:00
5:53 AM,48.9,37.9,66,29.88,10.0,SW,16.1,-,N/A,,Clear,220,2013-10-20 10:53:00
6:53 AM,50.0,37.9,63,29.88,10.0,SW,13.8,-,N/A,,Clear,220,2013-10-20 11:53:00
7:53 AM,50.0,39.0,66,29.90,10.0,SW,16.1,-,N/A,,Clear,220,2013-10-20 12:53:00
8:53 AM,52.0,39.9,63,29.91,10.0,SW,17.3,-,N/A,,Clear,220,2013-10-20 13:53:00
9:53 AM,55.9,39.9,55,29.90,10.0,SW,17.3,24.2,N/A,,Clear,220,2013-10-20 14:53:00
10:53 AM,60.1,39.9,47,29.90,10.0,SW,18.4,23.0,N/A,,Clear,230,2013-10-20 15:53:00
11:53 AM,64.0,41.0,43,29.89,10.0,SSW,16.1,-,N/A,,Clear,210,2013-10-20 16:53:00
12:53 PM,66.0,42.1,42,29.87,10.0,SSW,18.4,25.3,N/A,,Clear,210,2013-10-20 17:53:00
1:53 PM,68.0,42.1,39,29.85,10.0,SSW,16.1,25.3,N/A,,Clear,210,2013-10-20 18:53:00
2:53 PM,70.0,39.9,33,29.84,10.0,SW,16.1,27.6,N/A,,Clear,230,2013-10-20 19:53:00
3:53 PM,69.1,37.9,32,29.83,10.0,SW,15.0,28.8,N/A,,Clear,230,2013-10-20 20:53:00
4:53 PM,69.1,39.9,35,29.83,10.0,SW,13.8,19.6,N/A,,Clear,220,2013-10-20 21:53:00
5:53 PM,66.9,37.9,34,29.84,10.0,SSW,11.5,-,N/A,,Clear,210,2013-10-20 22:53:00
6:53 PM,63.0,37.0,38,29.86,10.0,SW,9.2,-,N/A,,Clear,220,2013-10-20 23:53:00
7:53 PM,59.0,37.9,46,29.87,10.0,SSW,8.1,-,N/A,,Clear,200,2013-10-21 00:53:00
8:53 PM,57.0,37.9,49,29.89,10.0,SSW,5.8,-,N/A,,Clear,210,2013-10-21 01:53:00
9:53 PM,57.0,39.9,53,29.91,10.0,SW,8.1,-,N/A,,Mostly Cloudy,220,2013-10-21 02:53:00
10:53 PM,57.0,39.9,53,29.92,10.0,SW,8.1,-,N/A,,Overcast,220,2013-10-21 03:53:00
11:53 PM,57.0,41.0,55,29.93,10.0,West,5.8,-,N/A,,Overcast,260,2013-10-21 04:53:00